sensor_id;sensor_type;location;lat;lon;timestamp;P1;durP1;ratioP1;P2;durP2;ratioP2
67352;SDS011;54238;52.278;21.056;2022-12-28T00:02:00;14.80;;;5.40;;
67352;SDS011;54238;52.278;21.056;2022-12-28T00:04:29;10.40;;;4.20;;
67352;SDS011;54238;52.278;21.056;2022-12-28T00:07:01;8.80;;;3.30;;
67352;SDS011;54238;52.278;21.056;2022-12-28T00:09:29;16.90;;;5.80;;
67352;SDS011;54238;52.278;21.056;2022-12-28T00:11:56;14.30;;;5.20;;
67352;SDS011;54238;52.278;21.056;2022-12-28T00:14:26;18.90;;;5.30;;
67352;SDS011;54238;52.278;21.056;2022-12-28T00:16:57;12.50;;;4.80;;
67352;SDS011;54238;52.278;21.056;2022-12-28T00:19:30;15.90;;;5.70;;
67352;SDS011;54238;52.278;21.056;2022-12-28T00:21:57;14.00;;;5.90;;
67352;SDS011;54238;52.278;21.056;2022-12-28T00:24:27;15.60;;;5.20;;
67352;SDS011;54238;52.278;21.056;2022-12-28T00:26:53;11.50;;;5.70;;
67352;SDS011;54238;52.278;21.056;2022-12-28T00:29:25;11.50;;;5.20;;
67352;SDS011;54238;52.278;21.056;2022-12-28T00:31:59;15.40;;;6.20;;
67352;SDS011;54238;52.278;21.056;2022-12-28T00:34:28;23.00;;;6.10;;
67352;SDS011;54238;52.278;21.056;2022-12-28T00:36:58;19.60;;;6.10;;
67352;SDS011;54238;52.278;21.056;2022-12-28T00:39:25;14.90;;;5.80;;
67352;SDS011;54238;52.278;21.056;2022-12-28T00:41:52;13.50;;;6.20;;
67352;SDS011;54238;52.278;21.056;2022-12-28T00:44:19;13.00;;;5.50;;
67352;SDS011;54238;52.278;21.056;2022-12-28T00:46:46;17.50;;;5.90;;
67352;SDS011;54238;52.278;21.056;2022-12-28T00:49:16;16.80;;;5.60;;
67352;SDS011;54238;52.278;21.056;2022-12-28T00:51:43;16.00;;;5.60;;
67352;SDS011;54238;52.278;21.056;2022-12-28T00:54:15;16.70;;;6.10;;
67352;SDS011;54238;52.278;21.056;2022-12-28T00:56:47;15.70;;;6.20;;
67352;SDS011;54238;52.278;21.056;2022-12-28T00:59:19;12.90;;;4.70;;
67352;SDS011;54238;52.278;21.056;2022-12-28T01:01:48;12.30;;;4.00;;
67352;SDS011;54238;52.278;21.056;2022-12-28T01:04:15;16.10;;;5.90;;
67352;SDS011;54238;52.278;21.056;2022-12-28T01:06:44;14.20;;;5.60;;
67352;SDS011;54238;52.278;21.056;2022-12-28T01:09:11;13.60;;;5.60;;
67352;SDS011;54238;52.278;21.056;2022-12-28T01:11:41;10.30;;;4.10;;
67352;SDS011;54238;52.278;21.056;2022-12-28T01:14:13;21.90;;;5.80;;
67352;SDS011;54238;52.278;21.056;2022-12-28T01:16:45;13.30;;;5.40;;
67352;SDS011;54238;52.278;21.056;2022-12-28T01:19:20;16.30;;;6.00;;
67352;SDS011;54238;52.278;21.056;2022-12-28T01:21:55;18.90;;;5.20;;
67352;SDS011;54238;52.278;21.056;2022-12-28T01:29:46;12.60;;;5.30;;
67352;SDS011;54238;52.278;21.056;2022-12-28T01:32:16;14.60;;;4.60;;
67352;SDS011;54238;52.278;21.056;2022-12-28T01:34:47;11.90;;;5.50;;
67352;SDS011;54238;52.278;21.056;2022-12-28T01:39:49;15.90;;;5.50;;
67352;SDS011;54238;52.278;21.056;2022-12-28T01:42:18;17.30;;;5.60;;
67352;SDS011;54238;52.278;21.056;2022-12-28T01:44:51;12.20;;;5.40;;
67352;SDS011;54238;52.278;21.056;2022-12-28T01:47:23;10.50;;;4.80;;
67352;SDS011;54238;52.278;21.056;2022-12-28T01:50:07;20.50;;;6.70;;
67352;SDS011;54238;52.278;21.056;2022-12-28T01:52:44;10.60;;;4.30;;
67352;SDS011;54238;52.278;21.056;2022-12-28T01:55:29;15.10;;;5.30;;
67352;SDS011;54238;52.278;21.056;2022-12-28T01:58:27;11.60;;;4.80;;
67352;SDS011;54238;52.278;21.056;2022-12-28T02:01:02;15.60;;;5.90;;
67352;SDS011;54238;52.278;21.056;2022-12-28T02:03:34;10.20;;;5.20;;
67352;SDS011;54238;52.278;21.056;2022-12-28T02:06:05;14.50;;;5.50;;
67352;SDS011;54238;52.278;21.056;2022-12-28T02:08:50;12.10;;;4.90;;
67352;SDS011;54238;52.278;21.056;2022-12-28T02:11:22;15.10;;;5.50;;
67352;SDS011;54238;52.278;21.056;2022-12-28T02:13:51;14.10;;;5.00;;
67352;SDS011;54238;52.278;21.056;2022-12-28T02:16:23;12.20;;;5.60;;
67352;SDS011;54238;52.278;21.056;2022-12-28T02:18:50;14.60;;;5.30;;
67352;SDS011;54238;52.278;21.056;2022-12-28T02:21:28;15.10;;;5.80;;
67352;SDS011;54238;52.278;21.056;2022-12-28T02:30:05;12.10;;;5.10;;
67352;SDS011;54238;52.278;21.056;2022-12-28T02:36:18;13.40;;;5.20;;
67352;SDS011;54238;52.278;21.056;2022-12-28T02:39:20;12.80;;;5.30;;
67352;SDS011;54238;52.278;21.056;2022-12-28T02:41:51;15.90;;;5.50;;
67352;SDS011;54238;52.278;21.056;2022-12-28T02:44:21;13.50;;;6.00;;
67352;SDS011;54238;52.278;21.056;2022-12-28T02:47:14;15.90;;;5.60;;
67352;SDS011;54238;52.278;21.056;2022-12-28T02:50:06;13.80;;;6.40;;
67352;SDS011;54238;52.278;21.056;2022-12-28T02:53:39;12.70;;;5.90;;
67352;SDS011;54238;52.278;21.056;2022-12-28T03:05:18;10.40;;;6.00;;
67352;SDS011;54238;52.278;21.056;2022-12-28T03:08:30;21.70;;;6.50;;
67352;SDS011;54238;52.278;21.056;2022-12-28T03:11:16;13.20;;;6.20;;
67352;SDS011;54238;52.278;21.056;2022-12-28T03:14:13;13.00;;;6.60;;
67352;SDS011;54238;52.278;21.056;2022-12-28T03:16:53;18.20;;;7.00;;
67352;SDS011;54238;52.278;21.056;2022-12-28T03:22:39;15.90;;;6.50;;
67352;SDS011;54238;52.278;21.056;2022-12-28T03:25:32;13.30;;;6.00;;
67352;SDS011;54238;52.278;21.056;2022-12-28T03:28:30;20.10;;;5.90;;
67352;SDS011;54238;52.278;21.056;2022-12-28T03:31:22;18.00;;;6.50;;
67352;SDS011;54238;52.278;21.056;2022-12-28T03:33:56;20.30;;;6.40;;
67352;SDS011;54238;52.278;21.056;2022-12-28T03:41:58;11.60;;;5.70;;
67352;SDS011;54238;52.278;21.056;2022-12-28T03:47:40;11.20;;;5.90;;
67352;SDS011;54238;52.278;21.056;2022-12-28T03:50:15;8.40;;;3.60;;
67352;SDS011;54238;52.278;21.056;2022-12-28T03:52:46;12.30;;;5.60;;
67352;SDS011;54238;52.278;21.056;2022-12-28T03:55:20;16.10;;;7.10;;
67352;SDS011;54238;52.278;21.056;2022-12-28T03:57:47;18.60;;;6.10;;
67352;SDS011;54238;52.278;21.056;2022-12-28T04:00:17;14.00;;;6.10;;
67352;SDS011;54238;52.278;21.056;2022-12-28T04:02:48;13.80;;;5.50;;
67352;SDS011;54238;52.278;21.056;2022-12-28T04:05:20;12.90;;;7.00;;
67352;SDS011;54238;52.278;21.056;2022-12-28T04:07:50;17.30;;;7.40;;
67352;SDS011;54238;52.278;21.056;2022-12-28T04:10:17;12.30;;;7.00;;
67352;SDS011;54238;52.278;21.056;2022-12-28T04:12:47;17.60;;;6.90;;
67352;SDS011;54238;52.278;21.056;2022-12-28T04:15:17;11.20;;;6.00;;
67352;SDS011;54238;52.278;21.056;2022-12-28T04:17:44;14.40;;;5.30;;
67352;SDS011;54238;52.278;21.056;2022-12-28T04:20:14;12.70;;;6.40;;
67352;SDS011;54238;52.278;21.056;2022-12-28T04:22:44;13.80;;;6.90;;
67352;SDS011;54238;52.278;21.056;2022-12-28T04:25:12;13.60;;;6.60;;
67352;SDS011;54238;52.278;21.056;2022-12-28T04:27:39;11.90;;;6.00;;
67352;SDS011;54238;52.278;21.056;2022-12-28T04:30:10;14.70;;;7.30;;
67352;SDS011;54238;52.278;21.056;2022-12-28T04:32:41;16.40;;;7.10;;
67352;SDS011;54238;52.278;21.056;2022-12-28T04:35:13;19.40;;;6.60;;
67352;SDS011;54238;52.278;21.056;2022-12-28T04:37:44;21.40;;;6.40;;
67352;SDS011;54238;52.278;21.056;2022-12-28T04:40:12;15.00;;;6.80;;
67352;SDS011;54238;52.278;21.056;2022-12-28T04:42:40;11.80;;;6.80;;
67352;SDS011;54238;52.278;21.056;2022-12-28T04:45:08;12.60;;;5.50;;
67352;SDS011;54238;52.278;21.056;2022-12-28T04:47:38;13.70;;;6.70;;
67352;SDS011;54238;52.278;21.056;2022-12-28T04:50:08;13.40;;;6.30;;
67352;SDS011;54238;52.278;21.056;2022-12-28T04:52:38;19.60;;;6.60;;
67352;SDS011;54238;52.278;21.056;2022-12-28T04:55:07;12.10;;;6.50;;
67352;SDS011;54238;52.278;21.056;2022-12-28T04:57:38;13.10;;;6.00;;
67352;SDS011;54238;52.278;21.056;2022-12-28T05:00:07;15.10;;;6.80;;
67352;SDS011;54238;52.278;21.056;2022-12-28T05:02:40;17.80;;;6.40;;
67352;SDS011;54238;52.278;21.056;2022-12-28T05:05:11;10.30;;;4.80;;
67352;SDS011;54238;52.278;21.056;2022-12-28T05:07:38;14.60;;;6.90;;
67352;SDS011;54238;52.278;21.056;2022-12-28T05:10:08;16.00;;;6.20;;
67352;SDS011;54238;52.278;21.056;2022-12-28T05:12:38;12.40;;;6.00;;
67352;SDS011;54238;52.278;21.056;2022-12-28T05:15:09;17.00;;;7.20;;
67352;SDS011;54238;52.278;21.056;2022-12-28T05:17:37;16.60;;;7.40;;
67352;SDS011;54238;52.278;21.056;2022-12-28T05:20:10;17.60;;;7.60;;
67352;SDS011;54238;52.278;21.056;2022-12-28T05:22:44;16.20;;;6.90;;
67352;SDS011;54238;52.278;21.056;2022-12-28T05:25:11;9.40;;;5.70;;
67352;SDS011;54238;52.278;21.056;2022-12-28T05:27:43;11.90;;;6.70;;
67352;SDS011;54238;52.278;21.056;2022-12-28T05:30:11;20.30;;;7.30;;
67352;SDS011;54238;52.278;21.056;2022-12-28T05:32:41;10.20;;;5.80;;
67352;SDS011;54238;52.278;21.056;2022-12-28T05:35:09;13.60;;;6.30;;
67352;SDS011;54238;52.278;21.056;2022-12-28T05:37:37;14.70;;;6.70;;
67352;SDS011;54238;52.278;21.056;2022-12-28T05:40:05;10.30;;;6.40;;
67352;SDS011;54238;52.278;21.056;2022-12-28T05:42:36;16.70;;;7.90;;
67352;SDS011;54238;52.278;21.056;2022-12-28T05:45:08;18.30;;;8.20;;
67352;SDS011;54238;52.278;21.056;2022-12-28T05:47:42;13.90;;;5.40;;
67352;SDS011;54238;52.278;21.056;2022-12-28T05:50:13;20.80;;;7.50;;
67352;SDS011;54238;52.278;21.056;2022-12-28T05:52:46;15.20;;;6.00;;
67352;SDS011;54238;52.278;21.056;2022-12-28T05:55:18;16.10;;;7.70;;
67352;SDS011;54238;52.278;21.056;2022-12-28T05:57:47;12.40;;;7.20;;
67352;SDS011;54238;52.278;21.056;2022-12-28T06:00:18;17.50;;;7.60;;
67352;SDS011;54238;52.278;21.056;2022-12-28T06:02:46;13.60;;;7.30;;
67352;SDS011;54238;52.278;21.056;2022-12-28T06:05:14;19.50;;;7.20;;
67352;SDS011;54238;52.278;21.056;2022-12-28T06:07:42;15.40;;;7.20;;
67352;SDS011;54238;52.278;21.056;2022-12-28T06:10:14;19.30;;;7.90;;
67352;SDS011;54238;52.278;21.056;2022-12-28T06:12:44;19.30;;;7.60;;
67352;SDS011;54238;52.278;21.056;2022-12-28T06:15:17;15.60;;;7.90;;
67352;SDS011;54238;52.278;21.056;2022-12-28T06:17:45;15.90;;;7.30;;
67352;SDS011;54238;52.278;21.056;2022-12-28T06:20:12;18.20;;;8.50;;
67352;SDS011;54238;52.278;21.056;2022-12-28T06:22:44;17.30;;;7.80;;
67352;SDS011;54238;52.278;21.056;2022-12-28T06:25:20;18.20;;;7.70;;
67352;SDS011;54238;52.278;21.056;2022-12-28T06:27:52;12.00;;;7.10;;
67352;SDS011;54238;52.278;21.056;2022-12-28T06:30:22;17.60;;;7.80;;
67352;SDS011;54238;52.278;21.056;2022-12-28T06:32:54;15.80;;;7.40;;
67352;SDS011;54238;52.278;21.056;2022-12-28T06:35:25;24.80;;;9.50;;
67352;SDS011;54238;52.278;21.056;2022-12-28T06:37:58;24.00;;;10.40;;
67352;SDS011;54238;52.278;21.056;2022-12-28T06:40:28;38.00;;;11.10;;
67352;SDS011;54238;52.278;21.056;2022-12-28T06:42:58;34.20;;;10.20;;
67352;SDS011;54238;52.278;21.056;2022-12-28T06:45:28;32.40;;;10.40;;
67352;SDS011;54238;52.278;21.056;2022-12-28T06:47:55;30.70;;;9.10;;
67352;SDS011;54238;52.278;21.056;2022-12-28T06:50:26;27.10;;;9.70;;
67352;SDS011;54238;52.278;21.056;2022-12-28T06:52:56;39.00;;;10.70;;
67352;SDS011;54238;52.278;21.056;2022-12-28T06:55:26;26.60;;;10.40;;
67352;SDS011;54238;52.278;21.056;2022-12-28T06:57:56;35.90;;;9.90;;
67352;SDS011;54238;52.278;21.056;2022-12-28T07:00:24;27.20;;;10.60;;
67352;SDS011;54238;52.278;21.056;2022-12-28T07:02:59;32.60;;;9.70;;
67352;SDS011;54238;52.278;21.056;2022-12-28T07:05:32;24.20;;;9.00;;
67352;SDS011;54238;52.278;21.056;2022-12-28T07:07:59;18.30;;;9.30;;
67352;SDS011;54238;52.278;21.056;2022-12-28T07:13:04;21.80;;;9.60;;
67352;SDS011;54238;52.278;21.056;2022-12-28T07:15:38;23.40;;;9.30;;
67352;SDS011;54238;52.278;21.056;2022-12-28T07:18:10;26.50;;;9.90;;
67352;SDS011;54238;52.278;21.056;2022-12-28T07:20:40;17.50;;;9.10;;
67352;SDS011;54238;52.278;21.056;2022-12-28T07:23:10;18.40;;;9.10;;
67352;SDS011;54238;52.278;21.056;2022-12-28T07:25:37;21.60;;;9.70;;
67352;SDS011;54238;52.278;21.056;2022-12-28T07:28:05;24.90;;;10.20;;
67352;SDS011;54238;52.278;21.056;2022-12-28T07:30:38;22.00;;;10.70;;
67352;SDS011;54238;52.278;21.056;2022-12-28T07:33:09;23.90;;;9.70;;
67352;SDS011;54238;52.278;21.056;2022-12-28T07:35:39;25.20;;;10.00;;
67352;SDS011;54238;52.278;21.056;2022-12-28T07:38:11;20.90;;;9.50;;
67352;SDS011;54238;52.278;21.056;2022-12-28T07:40:41;22.60;;;10.10;;
67352;SDS011;54238;52.278;21.056;2022-12-28T07:43:12;17.40;;;9.50;;
67352;SDS011;54238;52.278;21.056;2022-12-28T07:45:44;16.00;;;9.50;;
67352;SDS011;54238;52.278;21.056;2022-12-28T07:48:14;22.00;;;10.00;;
67352;SDS011;54238;52.278;21.056;2022-12-28T07:50:42;20.20;;;9.90;;
67352;SDS011;54238;52.278;21.056;2022-12-28T07:53:14;16.70;;;9.20;;
67352;SDS011;54238;52.278;21.056;2022-12-28T07:55:42;15.60;;;8.60;;
67352;SDS011;54238;52.278;21.056;2022-12-28T07:58:11;19.90;;;9.90;;
67352;SDS011;54238;52.278;21.056;2022-12-28T08:00:39;14.30;;;7.60;;
67352;SDS011;54238;52.278;21.056;2022-12-28T08:03:10;15.30;;;8.90;;
67352;SDS011;54238;52.278;21.056;2022-12-28T08:05:41;16.80;;;8.70;;
67352;SDS011;54238;52.278;21.056;2022-12-28T08:08:09;23.80;;;9.80;;
67352;SDS011;54238;52.278;21.056;2022-12-28T08:10:41;18.40;;;9.70;;
67352;SDS011;54238;52.278;21.056;2022-12-28T08:13:11;17.60;;;8.80;;
67352;SDS011;54238;52.278;21.056;2022-12-28T08:15:39;15.20;;;8.20;;
67352;SDS011;54238;52.278;21.056;2022-12-28T08:18:09;21.90;;;8.80;;
67352;SDS011;54238;52.278;21.056;2022-12-28T08:20:39;16.00;;;8.00;;
67352;SDS011;54238;52.278;21.056;2022-12-28T08:23:10;11.30;;;6.60;;
67352;SDS011;54238;52.278;21.056;2022-12-28T08:25:40;14.90;;;8.00;;
67352;SDS011;54238;52.278;21.056;2022-12-28T08:28:11;13.40;;;6.60;;
67352;SDS011;54238;52.278;21.056;2022-12-28T08:30:43;17.00;;;7.70;;
67352;SDS011;54238;52.278;21.056;2022-12-28T08:33:13;15.30;;;7.90;;
67352;SDS011;54238;52.278;21.056;2022-12-28T08:35:41;17.60;;;8.10;;
67352;SDS011;54238;52.278;21.056;2022-12-28T08:38:11;13.60;;;7.80;;
67352;SDS011;54238;52.278;21.056;2022-12-28T08:40:41;20.10;;;7.80;;
67352;SDS011;54238;52.278;21.056;2022-12-28T08:43:11;20.00;;;8.00;;
67352;SDS011;54238;52.278;21.056;2022-12-28T08:45:43;17.70;;;7.70;;
67352;SDS011;54238;52.278;21.056;2022-12-28T08:48:16;17.90;;;7.20;;
67352;SDS011;54238;52.278;21.056;2022-12-28T08:50:46;15.30;;;7.20;;
67352;SDS011;54238;52.278;21.056;2022-12-28T08:53:17;14.50;;;7.00;;
67352;SDS011;54238;52.278;21.056;2022-12-28T08:55:47;16.00;;;7.80;;
67352;SDS011;54238;52.278;21.056;2022-12-28T08:58:18;11.70;;;6.50;;
67352;SDS011;54238;52.278;21.056;2022-12-28T09:00:45;14.90;;;6.90;;
67352;SDS011;54238;52.278;21.056;2022-12-28T09:03:15;25.20;;;8.00;;
67352;SDS011;54238;52.278;21.056;2022-12-28T09:05:47;9.40;;;6.00;;
67352;SDS011;54238;52.278;21.056;2022-12-28T09:08:18;19.60;;;8.90;;
67352;SDS011;54238;52.278;21.056;2022-12-28T09:10:52;12.70;;;7.10;;
67352;SDS011;54238;52.278;21.056;2022-12-28T09:13:27;21.20;;;7.90;;
67352;SDS011;54238;52.278;21.056;2022-12-28T09:16:00;15.60;;;8.00;;
67352;SDS011;54238;52.278;21.056;2022-12-28T09:18:35;16.10;;;7.80;;
67352;SDS011;54238;52.278;21.056;2022-12-28T09:21:20;12.50;;;7.10;;
67352;SDS011;54238;52.278;21.056;2022-12-28T09:23:51;16.40;;;8.90;;
67352;SDS011;54238;52.278;21.056;2022-12-28T09:26:28;14.50;;;6.90;;
67352;SDS011;54238;52.278;21.056;2022-12-28T09:29:03;15.50;;;7.00;;
67352;SDS011;54238;52.278;21.056;2022-12-28T09:31:35;10.50;;;5.40;;
67352;SDS011;54238;52.278;21.056;2022-12-28T09:34:11;11.90;;;6.10;;
67352;SDS011;54238;52.278;21.056;2022-12-28T09:36:43;18.90;;;8.70;;
67352;SDS011;54238;52.278;21.056;2022-12-28T09:39:17;16.10;;;7.40;;
67352;SDS011;54238;52.278;21.056;2022-12-28T09:47:45;18.20;;;7.40;;
67352;SDS011;54238;52.278;21.056;2022-12-28T09:58:46;16.00;;;7.40;;
67352;SDS011;54238;52.278;21.056;2022-12-28T10:01:19;14.50;;;7.70;;
67352;SDS011;54238;52.278;21.056;2022-12-28T10:03:50;13.90;;;6.20;;
67352;SDS011;54238;52.278;21.056;2022-12-28T10:06:24;13.30;;;7.40;;
67352;SDS011;54238;52.278;21.056;2022-12-28T10:09:03;14.20;;;6.00;;
67352;SDS011;54238;52.278;21.056;2022-12-28T10:11:42;15.30;;;7.10;;
67352;SDS011;54238;52.278;21.056;2022-12-28T10:14:30;11.00;;;6.30;;
67352;SDS011;54238;52.278;21.056;2022-12-28T10:17:03;12.30;;;7.10;;
67352;SDS011;54238;52.278;21.056;2022-12-28T10:19:35;14.90;;;6.50;;
67352;SDS011;54238;52.278;21.056;2022-12-28T10:22:07;14.60;;;6.70;;
67352;SDS011;54238;52.278;21.056;2022-12-28T10:24:43;10.60;;;5.60;;
67352;SDS011;54238;52.278;21.056;2022-12-28T10:27:31;19.00;;;7.40;;
67352;SDS011;54238;52.278;21.056;2022-12-28T10:30:09;12.90;;;6.80;;
67352;SDS011;54238;52.278;21.056;2022-12-28T10:33:14;15.10;;;5.30;;
67352;SDS011;54238;52.278;21.056;2022-12-28T10:35:51;13.80;;;6.10;;
67352;SDS011;54238;52.278;21.056;2022-12-28T10:38:33;18.10;;;6.30;;
67352;SDS011;54238;52.278;21.056;2022-12-28T10:41:14;6.60;;;4.00;;
67352;SDS011;54238;52.278;21.056;2022-12-28T10:43:48;15.10;;;6.00;;
67352;SDS011;54238;52.278;21.056;2022-12-28T10:46:22;10.30;;;6.00;;
67352;SDS011;54238;52.278;21.056;2022-12-28T10:48:57;9.50;;;4.60;;
67352;SDS011;54238;52.278;21.056;2022-12-28T10:53:58;14.30;;;6.00;;
67352;SDS011;54238;52.278;21.056;2022-12-28T10:56:43;9.40;;;5.40;;
67352;SDS011;54238;52.278;21.056;2022-12-28T10:59:26;11.40;;;5.10;;
67352;SDS011;54238;52.278;21.056;2022-12-28T11:02:22;11.30;;;5.50;;
67352;SDS011;54238;52.278;21.056;2022-12-28T11:05:16;12.00;;;4.50;;
67352;SDS011;54238;52.278;21.056;2022-12-28T11:08:05;13.50;;;5.10;;
67352;SDS011;54238;52.278;21.056;2022-12-28T11:10:37;8.10;;;4.20;;
67352;SDS011;54238;52.278;21.056;2022-12-28T11:13:18;15.80;;;6.10;;
67352;SDS011;54238;52.278;21.056;2022-12-28T11:15:48;8.80;;;4.40;;
67352;SDS011;54238;52.278;21.056;2022-12-28T11:18:19;10.80;;;4.90;;
67352;SDS011;54238;52.278;21.056;2022-12-28T11:20:52;15.60;;;5.30;;
67352;SDS011;54238;52.278;21.056;2022-12-28T11:23:26;14.40;;;6.30;;
67352;SDS011;54238;52.278;21.056;2022-12-28T11:26:03;13.10;;;5.90;;
67352;SDS011;54238;52.278;21.056;2022-12-28T11:28:45;14.90;;;5.60;;
67352;SDS011;54238;52.278;21.056;2022-12-28T11:31:30;15.20;;;5.50;;
67352;SDS011;54238;52.278;21.056;2022-12-28T11:34:05;11.40;;;4.70;;
67352;SDS011;54238;52.278;21.056;2022-12-28T11:36:40;13.50;;;5.70;;
67352;SDS011;54238;52.278;21.056;2022-12-28T11:41:57;13.00;;;5.30;;
67352;SDS011;54238;52.278;21.056;2022-12-28T11:47:01;12.10;;;5.40;;
67352;SDS011;54238;52.278;21.056;2022-12-28T11:49:36;10.90;;;6.30;;
67352;SDS011;54238;52.278;21.056;2022-12-28T11:55:00;12.30;;;5.50;;
67352;SDS011;54238;52.278;21.056;2022-12-28T11:57:48;12.10;;;5.40;;
67352;SDS011;54238;52.278;21.056;2022-12-28T12:02:53;9.70;;;4.70;;
67352;SDS011;54238;52.278;21.056;2022-12-28T12:10:41;13.90;;;6.70;;
67352;SDS011;54238;52.278;21.056;2022-12-28T12:16:02;12.10;;;6.30;;
67352;SDS011;54238;52.278;21.056;2022-12-28T12:18:53;14.90;;;6.20;;
67352;SDS011;54238;52.278;21.056;2022-12-28T12:21:34;11.90;;;5.60;;
67352;SDS011;54238;52.278;21.056;2022-12-28T12:24:45;11.40;;;5.40;;
67352;SDS011;54238;52.278;21.056;2022-12-28T12:27:35;16.10;;;7.00;;
67352;SDS011;54238;52.278;21.056;2022-12-28T12:30:19;21.80;;;7.30;;
67352;SDS011;54238;52.278;21.056;2022-12-28T12:32:57;14.70;;;6.50;;
67352;SDS011;54238;52.278;21.056;2022-12-28T12:35:32;16.20;;;5.60;;
67352;SDS011;54238;52.278;21.056;2022-12-28T12:38:23;16.40;;;7.10;;
67352;SDS011;54238;52.278;21.056;2022-12-28T12:44:29;14.20;;;7.10;;
67352;SDS011;54238;52.278;21.056;2022-12-28T12:58:20;15.80;;;7.00;;
67352;SDS011;54238;52.278;21.056;2022-12-28T13:01:32;16.60;;;7.40;;
67352;SDS011;54238;52.278;21.056;2022-12-28T13:04:17;14.30;;;7.10;;
67352;SDS011;54238;52.278;21.056;2022-12-28T13:06:57;16.50;;;7.10;;
67352;SDS011;54238;52.278;21.056;2022-12-28T13:09:32;13.70;;;6.80;;
67352;SDS011;54238;52.278;21.056;2022-12-28T13:12:07;17.60;;;6.90;;
67352;SDS011;54238;52.278;21.056;2022-12-28T13:14:52;17.20;;;6.30;;
67352;SDS011;54238;52.278;21.056;2022-12-28T13:17:27;22.10;;;7.30;;
67352;SDS011;54238;52.278;21.056;2022-12-28T13:20:19;14.90;;;7.20;;
67352;SDS011;54238;52.278;21.056;2022-12-28T13:22:48;17.30;;;7.50;;
67352;SDS011;54238;52.278;21.056;2022-12-28T13:27:58;16.30;;;7.00;;
67352;SDS011;54238;52.278;21.056;2022-12-28T13:30:32;14.70;;;6.70;;
67352;SDS011;54238;52.278;21.056;2022-12-28T13:33:03;15.70;;;6.70;;
67352;SDS011;54238;52.278;21.056;2022-12-28T13:35:33;18.60;;;7.50;;
67352;SDS011;54238;52.278;21.056;2022-12-28T13:40:40;16.10;;;7.60;;
67352;SDS011;54238;52.278;21.056;2022-12-28T13:46:31;11.10;;;5.80;;
67352;SDS011;54238;52.278;21.056;2022-12-28T13:49:04;15.30;;;6.20;;
67352;SDS011;54238;52.278;21.056;2022-12-28T13:51:38;17.30;;;7.60;;
67352;SDS011;54238;52.278;21.056;2022-12-28T13:54:10;18.70;;;7.50;;
67352;SDS011;54238;52.278;21.056;2022-12-28T13:56:41;20.50;;;7.40;;
67352;SDS011;54238;52.278;21.056;2022-12-28T13:59:15;12.90;;;5.60;;
67352;SDS011;54238;52.278;21.056;2022-12-28T14:01:51;13.40;;;5.90;;
67352;SDS011;54238;52.278;21.056;2022-12-28T14:04:22;10.00;;;5.30;;
67352;SDS011;54238;52.278;21.056;2022-12-28T14:06:53;16.70;;;6.40;;
67352;SDS011;54238;52.278;21.056;2022-12-28T14:09:23;13.00;;;5.40;;
67352;SDS011;54238;52.278;21.056;2022-12-28T14:11:54;20.80;;;7.30;;
67352;SDS011;54238;52.278;21.056;2022-12-28T14:14:23;16.30;;;6.60;;
67352;SDS011;54238;52.278;21.056;2022-12-28T14:16:54;17.00;;;6.30;;
67352;SDS011;54238;52.278;21.056;2022-12-28T14:19:27;13.80;;;5.90;;
67352;SDS011;54238;52.278;21.056;2022-12-28T14:21:58;15.40;;;6.10;;
67352;SDS011;54238;52.278;21.056;2022-12-28T14:24:26;16.30;;;6.20;;
67352;SDS011;54238;52.278;21.056;2022-12-28T14:26:56;14.70;;;5.70;;
67352;SDS011;54238;52.278;21.056;2022-12-28T14:29:34;14.20;;;5.20;;
67352;SDS011;54238;52.278;21.056;2022-12-28T14:32:05;13.00;;;5.80;;
67352;SDS011;54238;52.278;21.056;2022-12-28T14:34:40;17.40;;;6.50;;
67352;SDS011;54238;52.278;21.056;2022-12-28T14:37:29;16.70;;;6.40;;
67352;SDS011;54238;52.278;21.056;2022-12-28T14:40:20;14.50;;;6.60;;
67352;SDS011;54238;52.278;21.056;2022-12-28T14:43:04;13.90;;;5.70;;
67352;SDS011;54238;52.278;21.056;2022-12-28T14:45:38;12.40;;;6.20;;
67352;SDS011;54238;52.278;21.056;2022-12-28T14:51:24;12.10;;;5.70;;
67352;SDS011;54238;52.278;21.056;2022-12-28T14:54:21;18.30;;;5.50;;
67352;SDS011;54238;52.278;21.056;2022-12-28T14:57:01;12.90;;;5.60;;
67352;SDS011;54238;52.278;21.056;2022-12-28T14:59:36;13.00;;;5.40;;
67352;SDS011;54238;52.278;21.056;2022-12-28T15:02:38;14.40;;;5.60;;
67352;SDS011;54238;52.278;21.056;2022-12-28T15:08:11;9.40;;;5.00;;
67352;SDS011;54238;52.278;21.056;2022-12-28T15:10:53;13.00;;;5.00;;
67352;SDS011;54238;52.278;21.056;2022-12-28T15:13:27;8.90;;;5.10;;
67352;SDS011;54238;52.278;21.056;2022-12-28T15:16:00;8.90;;;4.70;;
67352;SDS011;54238;52.278;21.056;2022-12-28T15:18:38;12.40;;;5.50;;
67352;SDS011;54238;52.278;21.056;2022-12-28T15:21:21;14.70;;;5.40;;
67352;SDS011;54238;52.278;21.056;2022-12-28T15:23:54;16.40;;;4.90;;
67352;SDS011;54238;52.278;21.056;2022-12-28T15:26:28;11.80;;;5.50;;
67352;SDS011;54238;52.278;21.056;2022-12-28T15:28:56;13.60;;;5.30;;
67352;SDS011;54238;52.278;21.056;2022-12-28T15:31:31;14.60;;;6.30;;
67352;SDS011;54238;52.278;21.056;2022-12-28T15:34:03;9.50;;;5.30;;
67352;SDS011;54238;52.278;21.056;2022-12-28T15:36:35;12.00;;;5.50;;
67352;SDS011;54238;52.278;21.056;2022-12-28T15:39:03;12.30;;;5.60;;
67352;SDS011;54238;52.278;21.056;2022-12-28T15:41:40;13.10;;;4.20;;
67352;SDS011;54238;52.278;21.056;2022-12-28T15:44:18;14.80;;;6.40;;
67352;SDS011;54238;52.278;21.056;2022-12-28T15:46:49;11.20;;;5.20;;
67352;SDS011;54238;52.278;21.056;2022-12-28T15:49:20;12.90;;;5.60;;
67352;SDS011;54238;52.278;21.056;2022-12-28T15:51:49;11.40;;;5.10;;
67352;SDS011;54238;52.278;21.056;2022-12-28T15:54:16;16.70;;;6.10;;
67352;SDS011;54238;52.278;21.056;2022-12-28T15:56:52;14.40;;;5.90;;
67352;SDS011;54238;52.278;21.056;2022-12-28T15:59:21;13.00;;;5.20;;
67352;SDS011;54238;52.278;21.056;2022-12-28T16:01:56;15.20;;;5.50;;
67352;SDS011;54238;52.278;21.056;2022-12-28T16:04:30;13.40;;;6.10;;
67352;SDS011;54238;52.278;21.056;2022-12-28T16:07:02;14.70;;;6.00;;
67352;SDS011;54238;52.278;21.056;2022-12-28T16:09:30;13.00;;;6.10;;
67352;SDS011;54238;52.278;21.056;2022-12-28T16:12:06;11.30;;;4.90;;
67352;SDS011;54238;52.278;21.056;2022-12-28T16:14:37;13.30;;;6.40;;
67352;SDS011;54238;52.278;21.056;2022-12-28T16:17:08;14.40;;;5.20;;
67352;SDS011;54238;52.278;21.056;2022-12-28T16:19:38;12.00;;;5.50;;
67352;SDS011;54238;52.278;21.056;2022-12-28T16:22:08;11.30;;;5.50;;
67352;SDS011;54238;52.278;21.056;2022-12-28T16:24:42;16.00;;;6.70;;
67352;SDS011;54238;52.278;21.056;2022-12-28T16:27:14;13.40;;;5.00;;
67352;SDS011;54238;52.278;21.056;2022-12-28T16:29:45;14.20;;;6.00;;
67352;SDS011;54238;52.278;21.056;2022-12-28T16:32:15;15.20;;;5.90;;
67352;SDS011;54238;52.278;21.056;2022-12-28T16:34:43;14.50;;;6.70;;
67352;SDS011;54238;52.278;21.056;2022-12-28T16:37:13;21.00;;;7.20;;
67352;SDS011;54238;52.278;21.056;2022-12-28T16:39:45;14.40;;;6.00;;
67352;SDS011;54238;52.278;21.056;2022-12-28T16:42:12;15.40;;;5.40;;
67352;SDS011;54238;52.278;21.056;2022-12-28T16:44:44;11.90;;;6.10;;
67352;SDS011;54238;52.278;21.056;2022-12-28T16:47:14;11.10;;;5.50;;